events-overview

Kinetic Sprint

 

Overall Women

Lake Anna State Park - Spotsylvania, VA 5/10/2009 10:00AM

** Results are for the private use of participants and are the Intellectual Property of Set Up Events. Unauthorized use of these results is prohibited.

Place Bib Co S Age NAME CITY/STATE DQ DQ Rank SWIM Rank T1 Rank BIKE Rank T2 Rank RUN PENALTY TIME DQ
1305 F27NICOLE KELLEHERCHARLOTTESVILLE VA 1100:10:21200:01:29100:48:192900:01:05200:19:39 01:20:50 
2554 F28DARCY SPIESESTAFFORD VA 200:09:27500:01:371400:52:08100:00:43400:20:20 01:24:13 
3448 F44CONNIE PETERSONHARRISONBURG VA 900:10:17600:01:42300:49:071500:00:572100:22:54 01:24:54 
4187 F28ALEXANDRA FORTELOCUST DALE VA 3900:12:01400:01:35600:50:25900:00:53300:20:12 01:25:03 
533 F27KELZIE BEEBEWASHINGTON DC 2500:11:26800:01:42200:48:551100:00:541500:22:34 01:25:29 
6428 F26ELIZABETH OSBURNARLINGTON VA 1600:10:371200:01:53800:50:453100:01:05900:22:05 01:26:23 
73 F40JULIET ADAMSVIRGINIA BEACH VA 1200:10:261000:01:501200:51:44600:00:51800:21:52 01:26:41 
8487 F38MONICA ROBBERSARLINGTON VA 1900:10:501700:02:02500:50:131000:00:541900:22:51 01:26:47 
9572 F26MARIA TAKAHASHIMCLEAN VA 3200:11:41700:01:42400:49:57500:00:511600:22:45 01:26:53 
10515 F32ROBIN SCHROYERPALMYRA VA 700:10:042300:02:09700:50:284500:01:114700:25:04 01:28:53 
11330 F21MICHELLE LAUGHLINMOUNTAIN VIEW CA 2000:11:02900:01:471000:51:232000:00:592700:23:46 01:28:55 
1267 F29ERIN BURLOVICHALEXANDRIA VA 800:10:061600:02:002200:53:42200:00:452000:22:53 01:29:24 
13503 F34ABIGAIL RUSCETTAALEXANDRIA VA 600:10:02300:01:323100:55:02300:00:471100:22:13 01:29:34 
14388 F29JULIE MINTONBETHESDA MD 500:09:543000:02:132100:53:344400:01:101800:22:49 01:29:39 
1562 F24CASSIE BROWNHARRISONBURG VA 6300:13:158900:03:001100:51:343600:01:07500:20:45 01:29:39 
16192 F29NEVA FULKERSONSTONE RIDGE VA 2100:11:151400:01:552300:53:453800:01:08700:21:47 01:29:48 
17526 F43ANNE SHEEHYWOODBRIDGE VA 1000:10:182000:02:041900:52:354700:01:113300:24:11 01:30:18 
18611 F32NICOLE WEIDENSAULLOCUST GROVE VA 2600:11:291500:01:59900:50:556100:01:154000:24:45 01:30:22 
19427 F29KAROLINA ORTONRESTON VA 3400:11:473300:02:151600:52:223700:01:072200:23:07 01:30:36 
20409 F42MERLE NILKWASHINGTON DC 6600:13:172100:02:071300:52:033300:01:051000:22:06 01:30:37 
21366 F33RACHEL MCCARTHYFALLS CHURCH VA 2400:11:24         01:31:12 
22316 F33MARY KLIMAARLINGTON VA 1800:10:492500:02:112700:54:291300:00:563100:24:02 01:32:25 
236 F40AMY ADCOCKALEXANDRIA VA 3700:11:581800:02:022500:54:166600:01:172500:23:34 01:33:05 
24170 F36BARBARA FALLON WALLACEALEXANDRIA VA 5900:13:0610400:03:114100:56:04     01:33:27 
25436 F25ROBERTA PARSONSVIENNA VA 9400:14:153400:02:162800:54:424600:01:11600:21:20 01:33:42 
26281 F50CINDY IVERSENLEXINGTON VA 6700:13:181100:01:511700:52:231600:00:576000:26:18 01:34:46 
27263 F37HEATHER HESCHELESALEXANDRIA VAY14500:15:577400:02:437600:59:5610300:01:35100:14:40 01:34:49Y
28617 F23CLAIRE WHELANBURLINGTON VT 3500:11:514300:02:253000:54:5810100:01:343200:24:05 01:34:51 
29332 F31MARIE-CLAUDE LAVOIEWASHINGTON DC 5000:12:495000:02:283400:55:267700:01:212400:23:16 01:35:20 
30512 F47JOANNA SCHMICKELARLINGTON VA 12600:15:164800:02:271500:52:1410200:01:352800:23:50 01:35:21 
PlaceBibCoSAgeNAMECITY/STATE DQDQRankSWIMRankT1RankBIKERankT2RankRUNPENALTYTIMEDQ
31534 F26SVETLANA SIDILKOVSKAIACENTREVILLE VA 2700:11:301300:01:553200:55:052600:01:025700:25:53 01:35:22 
32472 F30JACLYN RACICOTALEXANDRIA VA 2800:11:337500:02:444000:55:452100:01:003600:24:37 01:35:38 
33137 F22KRISTEN DICARLOBLACKSBURG VA 8800:14:064900:02:272400:54:041700:00:584100:24:48 01:36:22 
34147 F42CAITLIN DUCKWALLBALTIMORE MD 8600:14:006600:02:362000:53:258500:01:294400:25:02 01:36:30 
35560 F28NICOLE STOCKEYCHARLOTTESVILLE VA 3800:11:592700:02:125300:57:363500:01:062900:23:56 01:36:48 
36435 F32JULIE PARKSALEXANDRIA VA 3100:11:394700:02:274700:56:528700:01:303500:24:24 01:36:50 
37488 F36LEIGH ROBBINSRICHMOND VA 1700:10:422200:02:094900:56:5713300:01:495000:25:15 01:36:51 
38371 F21LYNDSAY MCKEEVERBLACKSBURG VA 9800:14:213200:02:152900:54:4413700:01:523000:23:59 01:37:09 
39638 F25CHLOE YOUNG-HYMANBALTIMORE MD 100:09:238700:02:586800:59:312200:01:003700:24:38 01:37:28 
40484 F42MONIQUE RICOALDIE VA 7700:13:426900:02:373900:55:435500:01:141400:22:3100:02:0001:37:45 
41223 F31MARGARET GRAYRESTON VA 5100:12:502400:02:104500:56:277900:01:254600:25:03 01:37:53 
42670 F43TANEEN CARVELLARLINGTON VA 6000:13:115400:02:335800:58:286900:01:181700:22:45 01:38:14 
438 F50PENNY ALBRITTONFALLS CHURCH VA 12100:15:0810500:03:111800:52:31     01:38:24 
44270 F26CARA HOWIESONARLINGTON VA 8700:14:043900:02:243600:55:3311000:01:384500:25:02 01:38:39 
45350 F21CATHERINE LUCYANNAPOLIS MD            01:39:00 
46459 F43MICHELE POTTERGERMANTOWN MD 8500:14:007200:02:412600:54:2211300:01:396200:26:32 01:39:11 
47440 F52JULIA PECKCULPEPER VA 10500:14:34100:01:205100:57:06     01:39:22 
48216 F26JOANNA GOMEZWASHINGTON DC 8400:13:583100:02:134200:56:0414300:01:585400:25:33 01:39:45 
49105 F49GWEN CORLEYWINCHESTER VA 4800:12:295500:02:334300:56:197000:01:188000:27:26 01:40:04 
5019 F29KIM BAILEYARLINGTON VA 4900:12:304400:02:263800:55:417400:01:219100:28:13 01:40:08 
5159 F32LISA BROADHEADLORTON VA 1400:10:313500:02:174400:56:2110000:01:3411600:29:29 01:40:10 
52369 F25KATRINA MCGOWANELLICOTT CITY MD 12300:15:1114700:03:503500:55:319600:01:331200:22:1800:02:0001:40:21 
53285 F25JACLYN SERPICOELLICOTT CITY MD 4300:12:167000:02:374600:56:482400:01:018600:27:42 01:40:23 
5448 F29JENNIFER BOUTSELISALEXANDRIA VA 8000:13:5416700:04:093700:55:3517500:02:244300:24:54 01:40:53 
5522AF33JEN BAKERFALLS CHURCH VA 300:09:436000:02:344800:56:541800:00:5813100:30:59 01:41:06 
56623 F38LISA WILLIAMSWASHINGTON DC 12700:15:2114800:03:503300:55:2012200:01:455600:25:52 01:42:07 
57266 F34MICHAUX HOODCHARLOTTESVILLE VA 1300:10:3014600:03:486700:59:254000:01:097800:27:18 01:42:08 
58208 F27REIKO GELLERCENTREVILLE VA 2200:11:162900:02:139801:01:571900:00:585800:25:55 01:42:18 
59602 F20REBECCA WARDELLLAWRENCEVILLE NJ 5200:12:522800:02:136000:58:326400:01:168300:27:31 01:42:21 
60589NFF24MELANIE TURNERWOODBRIDGE VA 8200:13:5718200:04:235600:58:145400:01:143900:24:41 01:42:27 
6150 F29CORTNEY BOYCEALEXANDRIA VA 12000:15:0720200:04:525000:57:059800:01:333400:24:16 01:42:51 
PlaceBibCoSAgeNAMECITY/STATE DQDQRankSWIMRankT1RankBIKERankT2RankRUNPENALTYTIMEDQ
62155 F21GRIFFIN EDWARDSSAN FRANCISCO CA 7400:13:417700:02:457701:00:185900:01:144900:25:10 01:43:07 
63483 F35STEPHANIE RICHMANARLINGTON VA 12400:15:1212000:03:266500:59:126300:01:153800:24:39 01:43:43 
64634 F17LINDSEY YINGLINGAPEX NC 1500:10:352600:02:129301:01:304100:01:0910000:28:37 01:44:02 
6527 F46JEANMARIE BANTZAFTON VA 16200:16:245700:02:345200:57:125800:01:146500:26:44 01:44:06 
66626 F31ANNA WINKELBALTIMORE MD 11300:14:451900:02:025700:58:255700:01:148700:27:51 01:44:16 
67671 F34HOLLY SISKARLINGTON VA            01:44:32 
68133 F34ROBIN DENNISPOTOMAC MD 6800:13:2510200:03:107100:59:4110700:01:376400:26:43 01:44:33 
69114 F32GRETCHEN CULLENBERGARLINGTON VA 7500:13:416200:02:356300:58:585200:01:139600:28:30 01:44:55 
70625 F30JULIA WILSONRICHMOND VA 14700:16:006300:02:359701:01:547200:01:192300:23:16 01:45:02 
71126 F29KARLY DECKERROCKVILLE MD 4400:12:2011700:03:248301:00:5813800:01:527200:27:02 01:45:34 
72328 F51KATHLEEN LARKINVIENNA VA 10700:14:357900:02:466900:59:3312000:01:437000:26:59 01:45:35 
73169 F26CHRISTI FALLONWASHINGTON DC 13300:15:3213400:03:356400:59:1216000:02:155200:25:18 01:45:50 
74594 F25ERICA VERDINALEXANDRIA VA 400:09:4910100:03:0913001:05:101200:00:556800:26:54 01:45:55 
75529 F26CHRISTINE SHEPHERDWASHINGTON DC 4100:12:0916600:04:0813501:06:147300:01:191300:22:26 01:46:15 
76527 F50BARBARA SHENEFIELDCHARLOTTESVILLE VA 11200:14:444000:02:246600:59:2316400:02:198400:27:31 01:46:18 
77100 F47EMMIE COOKRICHMOND VA 10800:14:374200:02:256200:58:57     01:46:19 
78479 F43JENNIFER RENTCHWASHINGTON DC 6100:13:125200:02:297901:00:324800:01:1210800:28:57 01:46:20 
79577 F48NICOLE THOMASOLNEY MD 12200:15:109200:03:035400:57:589300:01:3310200:28:40 01:46:21 
80551 F41BECKY SPADALAUREL MD 9000:14:0912700:03:295500:58:029200:01:3311100:29:11 01:46:22 
81203 F30APRIL GAUTALEXANDRIA VA 8900:14:0712300:03:277000:59:3614000:01:535500:25:4500:02:0001:46:45 
82335 F54CATHERINE LEECULPEPER VA 7000:13:266500:02:368001:00:458600:01:2910100:28:38 01:46:52 
83312 F39COLLEEN KISHBETHESDA MD 15800:16:188400:02:557400:59:505000:01:136300:26:39 01:46:53 
84378 F20AMY MIAONORTH POTOMAC MD 10300:14:319000:03:018901:01:1710900:01:376600:26:44 01:47:08 
85555NFF23ALEXANDRA STANCZYKWASHINGTON DC 2900:11:3611900:03:2510401:02:274900:01:1210700:28:53 01:47:31 
86244 F34SARAH HALLWASHINGTON DC 11100:14:405900:02:348701:01:1315600:02:107500:27:07 01:47:42 
87318 F34TRACEY KLOESLEESBURG VA 7800:13:447600:02:4510701:02:418100:01:268200:27:29 01:48:04 
8839 F37CARLI BERTRANDWASHINGTON DC 10100:14:278100:02:497801:00:1812400:01:4610600:28:50 01:48:08 
89255AF42THERESA HARRISCHARLOTTESVILLE VA 7200:13:339100:03:028401:01:0714500:02:0010500:28:47 01:48:27 
90482AF22ANNE RICHARDSONCULPEPER VA 8100:13:565300:02:3013101:05:211400:00:565900:26:04 01:48:46 
91383 F35MARNI MILLERWOODBRIDGE VA 11600:14:539800:03:059001:01:246200:01:159200:28:14 01:48:48 
92284 F46PATTI JACKSONALEXANDRIA VA 9500:14:168300:02:509901:02:01     01:48:53 
PlaceBibCoSAgeNAMECITY/STATE DQDQRankSWIMRankT1RankBIKERankT2RankRUNPENALTYTIMEDQ
93259 F31EILY HAYESCHEVY CHASE MD 14600:15:5810600:03:118201:00:5112300:01:468100:27:28 01:49:12 
94415 F29MEGAN OATESARLINGTON VA 5300:12:5417700:04:1512701:05:0413900:01:525300:25:24 01:49:26 
95323 F55MARGOT KRAUSSKESINGTON MD 5500:12:5710900:03:1511301:03:31     01:49:33 
96372 F20JILL MCKENNAWASHINGTON DC 9300:14:134500:02:2610601:02:408400:01:2710900:29:06 01:49:50 
97191 F54SUZANNE FRIISBROOKEVILLE MD 16600:16:425800:02:347500:59:5411700:01:4211000:29:11 01:50:01 
98583 F32CHRISTINE THURBERWASHINGTON DC 15700:16:1418300:04:2311401:03:323000:01:054200:24:50 01:50:03 
99627 F21KIRSTEN WOLCOTTDUNNSVILLE VA 3600:11:559500:03:0417201:10:38800:00:522600:23:37 01:50:04 
100622NFF32KAREN WILLIAMSWASHINGTON DC 15200:16:0915900:04:0211501:03:337500:01:215100:25:16 01:50:19 
101519 F30BRITTA SCHUMANNFALLS CHURCH VA 4500:12:2313900:03:4011101:03:0112100:01:4412000:29:39 01:50:25 
10282 F30KENDRA CHAMBERSDUMFRIES VA 5800:13:046100:02:3511701:03:429100:01:3211800:29:34 01:50:26 
103444NFF39ANGELA PERRAULTKESWICK VT 15300:16:1010000:03:088801:01:1512900:01:479700:28:32 01:50:50 
104283 F35HEATHER JACKSONALEXANDRIA VA 11000:14:3916900:04:1110201:02:1414200:01:568800:28:00 01:50:58 
105509 F60LYNN SALVOMCLEAN VA 13700:15:4613100:03:338101:00:5016600:02:209900:28:35 01:51:02 
106439 F36WENDY PEARSONFALLS CHURCH VA 17000:16:597800:02:469501:01:42     01:51:20 
107580 F26TIFFIN THOMPSONWASHINGTON DC 6500:13:175100:02:299601:01:5211100:01:3914400:32:08 01:51:23 
108570 F43CAMILLA TAFT HICKSARLINGTON VA 19300:18:499900:03:0810801:02:469400:01:334800:25:10 01:51:23 
109308 F36LUDMILA KELLYBETHESDA MD 16400:16:343600:02:2010501:02:3714100:01:549300:28:17 01:51:40 
11016AF51MARJORIE AUERALEXANDRIA VA 5600:12:599400:03:0410901:02:4812800:01:4713400:31:18 01:51:53 
111597NFF21KRISTEN WAEBERCOLLEGE PARK MD 18900:18:396400:02:3511201:03:11400:00:507300:27:04 01:52:17 
112532 F25STEFANIE SHERRILLGREENBELT MD 16900:16:564600:02:2712001:04:1611200:01:397400:27:05 01:52:21 
11310 F20AMANDA ANDERSONLONG GROVE IL 13800:15:484100:02:2412901:05:09700:00:529400:28:17 01:52:29 
114199 F29KRISTIN GARCIAANNANDALE VA 12800:15:2313000:03:3112401:04:5212500:01:467600:27:09 01:52:39 
115514 F31AMBER SCHOBERTAPPAHANNOCK VA 7300:13:375600:02:3313301:05:478200:01:2711300:29:24 01:52:46 
116138 F31ERIN DILLONWASHINGTON DC 4700:12:2517900:04:1612801:05:0617900:02:3610300:28:43 01:53:04 
117354AF31CONSTANCE MACKLEESBURG VA 11400:14:477100:02:3911001:02:529900:01:3313300:31:15 01:53:04 
118322 F40KATRINA KOOMEYARLINGTON VA 17300:17:2614500:03:488601:01:11     01:53:14 
119530 F26MARLA SHERMANELLICOTT CITY MD 7900:13:4815700:04:008501:01:0711400:01:4015200:33:03 01:53:36 
12055 F46PATRICIA BRENESMCLEAN VA 7100:13:2916200:04:059401:01:3116900:02:2114600:32:14 01:53:39 
121209 F30ANDREA GEORGEARLINGTON VA 6400:13:1612400:03:2812301:04:3614900:02:0212500:30:23 01:53:44 
122331 F27REGINA LAURIENZOWASHINGTON DC 6900:13:2615200:03:5311601:03:40     01:53:46 
12335 F45JACKI BENNETTALEXANDRIA VA 14900:16:0612900:03:307200:59:4414400:01:5814900:32:36 01:53:52 
PlaceBibCoSAgeNAMECITY/STATE DQDQRankSWIMRankT1RankBIKERankT2RankRUNPENALTYTIMEDQ
12447 F37RACHEL BOTTONEBETHESDA MD 16000:16:1915600:03:566100:58:4612600:01:4615300:33:14 01:54:00 
12540 F20KATHERINE BEYERRICHMOND VA 14300:15:539700:03:057300:59:5017800:02:3515100:32:47 01:54:07 
126202AF25ABBY GAUDETTEFALLS CHURCH VA 3300:11:4314300:03:4614501:07:0116100:02:1511900:29:34 01:54:18 
127108 F51ALICE CRANEORANGE VA 13600:15:449300:03:0312101:04:227800:01:2412200:30:04 01:54:35 
128621 F37AMY WILLIAMSWASHINGTON DC 10000:14:2515400:03:539101:01:2718900:02:5514800:32:29 01:55:08 
129273 F26LAUREN HUNTWASHINGTON DC 7600:13:428500:02:5612201:04:28     01:55:30 
130132 F24SHERI DENLINGERARLINGTON VA 17800:17:556800:02:3714401:06:556000:01:146900:26:57 01:55:37 
13165 F36LONE BRYANWASHINGTON DC 18700:18:3616500:04:075900:58:3219000:02:5713900:31:44 01:55:53 
132508 F41HALA SALHA FAYYADROCKVILLE MD 15500:16:113800:02:2311801:03:5113000:01:4914000:31:47 01:56:00 
133543 F51MARGARET LOW SMITHROCKVILLE MD 4600:12:2511200:03:1815101:07:5910500:01:3612900:30:49 01:56:05 
134314 F28MARY KLAPMUSTARLINGTON VA 4000:12:0716400:04:0715601:08:385600:01:1412400:30:20 01:56:24 
13569 F31SARAH BUTCHERALEXANDRIA VA 17200:17:057300:02:4212501:04:538900:01:3212300:30:16 01:56:26 
136337 F27JULIA LEEWASHINGTON DC 19200:18:4820300:04:5210001:02:0116200:02:179800:28:35 01:56:31 
137481 F27KAT RICHARLINGTON VA 11700:14:5812600:03:2916101:08:4915000:02:037900:27:25 01:56:42 
13849NFF31KATIE BOWMANWASHINGTON DC 17500:17:3218100:04:2112601:05:0317700:02:298500:27:31 01:56:54 
139450 F40MELISSA PHILLIPSALEXANDRIA VA 9600:14:1710300:03:1116601:09:035100:01:1311200:29:17 01:56:59 
140485 F24DANI RISCHALLWASHINGTON DC 4200:12:159600:03:0414601:07:053900:01:0915800:33:43 01:57:13 
141399 F53MOLLY MYERSKENSINGTON MD 10200:14:3114100:03:419201:01:28     01:57:18 
142235 F23SUSAN GROSSROCKVILLE MD 6200:13:143700:02:2318901:14:134200:01:107700:27:16 01:58:13 
143608 F38REBECCA WEAVERLEESBURG VA 12900:15:2319500:04:4116901:09:4913500:01:506700:26:44 01:58:26 
144462 F41LORIE PREHEIMWASHINGTON DC 13200:15:3219000:04:3114101:06:442800:01:0412800:30:47 01:58:36 
145267 F43JANE HOPKINSLEXINGTON VA 16700:16:4415300:03:5314301:06:477600:01:2112100:29:57 01:58:40 
14683NFF30MELANIE CHANGLAUREL MD 10600:14:3518000:04:1911901:03:5215100:02:0516200:33:58 01:58:48 
147282 F52WENDY IVERSENARLINGTON VA 11800:14:5918700:04:2813601:06:2217000:02:2112700:30:44 01:58:52 
148136 F31KATHRYN DIAZFREDERICKSBURG VA 19800:19:1710700:03:1213901:06:366800:01:1810400:28:44 01:59:05 
149179 F37LYNNE FLAVELLARLINGTON VA 15600:16:1215500:03:5414901:07:3015500:02:1011400:29:25 01:59:09 
150413 F26GILLIAN OAKARLINGTON VA 21000:22:3713200:03:3313201:05:2510400:01:367100:26:59 02:00:09 
151182 F24PATRICIA FLETCHERTRIANGLE VA 18600:18:3510800:03:1210101:02:0513200:01:4916900:34:47 02:00:27 
152229 F25CARLY GREYARLINGTON VA 18500:18:2918500:04:2715901:08:402300:01:018900:28:03 02:00:38 
15344NFF30KRISTIE BLUETTWASHINGTON DC 11900:15:0114200:03:4215701:08:3815800:02:1213500:31:24 02:00:55 
154672 F38MISTY PHIFERDUMFRIES VA 14200:15:5211000:03:1514801:07:238800:01:3115500:33:25 02:01:23 
PlaceBibCoSAgeNAMECITY/STATE DQDQRankSWIMRankT1RankBIKERankT2RankRUNPENALTYTIMEDQ
155394 F41MONICA MUELLERPORTSMOUTH VA 14400:15:5519400:04:3715501:08:3118700:02:5411500:29:29 02:01:25 
15680 F29ERICKA CAUDILLCENTREVILLE VA 9700:14:1811600:03:2313701:06:2317100:02:2217200:35:18 02:01:43 
157522 F32MARGUERITE SCULLYNEW YORK NY 13100:15:2816300:04:0613801:06:28     02:01:53 
158194 F31KATY GADZICHOWSKICENTREVILLE VA 12500:15:156700:02:3615801:08:4013100:01:4915700:33:36 02:01:54 
159242 F61MARY HAGERWASHINGTON DC 8300:13:5817100:04:1216801:09:3618500:02:4613600:31:25 02:01:55 
160547 F28CADY SNYDERARLINGTON VA 5700:13:0316000:04:0316701:09:2619700:04:0114300:31:53 02:02:25 
161243 F40ANNE HALALALEXANDRIA VA 14800:16:0317500:04:1413401:05:5716700:02:2116600:34:23 02:02:56 
162480 F41JILL RHODESALEXANDRIA VA 11500:14:4913600:03:3815301:08:1816300:02:1816000:33:54 02:02:56 
16384NFF34HEATHER CHAPMANMONTCLAIR VA 13000:15:2411400:03:2117301:10:4513600:01:5114200:31:50 02:03:08 
164535NFF24LILLIAN SIEGELWASHINGTON DC 13500:15:4117300:04:1217401:10:4817300:02:2312600:30:34 02:03:37 
165178 F27ERICA FITZSIMMONSWASHINGTON DC 3000:11:3711300:03:2115001:07:3715200:02:0918300:39:32 02:04:13 
166247AF33CHRISTIE HAMROUNISPOTSYLVANIA VA 16300:16:3114400:03:4810301:02:2519300:03:1118200:38:24 02:04:16 
167537 F27CINDY SIXELKRIDGE MD 2300:11:1919300:04:3517701:11:04     02:04:22 
168145NFF30MEGAN DOYLEWASHINGTON DC 21300:23:2512200:03:2714001:06:4210600:01:3611700:29:33 02:04:41 
169420 F54ROWANA OKUNBEDFORD VA 15000:16:088600:02:5616301:08:5818100:02:3816400:34:06 02:04:45 
170325NFF45JOAN KVENLOGSTAFFORD VA 9100:14:1112800:03:3015201:08:128300:01:2718000:37:32 02:04:49 
171271 F47MARIAN HUISHWASHINGTON DC 19100:18:4714000:03:4118201:12:0815700:02:119500:28:25 02:05:10 
172490 F40COLLEEN ROBSONRIXEYVILLE VA 17400:17:3021600:09:4716501:09:033200:01:059000:28:09 02:05:33 
173140NFF37MEGAN DLUGOSFREDERICKSBURG VA 18300:18:208200:02:5017901:11:326700:01:1714100:31:48 02:05:44 
17414NFF50KATHLEEN ATKINSFREDERICKSBURG VA 18200:18:098800:02:5818001:11:36     02:05:45 
175295NFF32SUSAN KAHRSARLINGTON VA 15400:16:1120400:04:5319501:15:5517600:02:256100:26:29 02:05:51 
176141 F24ERIN DONOVANSTEPHENS CITY VA 9900:14:2213800:03:4016201:08:5214700:02:0117800:37:01 02:05:53 
17793 F51ANNE CLELLANDBLACKSBURG VA 14000:15:4919600:04:4216401:09:036500:01:1717100:35:17 02:06:05 
178511 F48MARYROSE SCHLEGELOAK HILL VA 10400:14:3320600:05:0618301:12:2819400:03:2113200:31:07 02:06:32 
179260NFF28GINGER HEDEGOREWALDORF MD 13400:15:3818600:04:2717501:10:5413400:01:5016300:34:02 02:06:49 
180477 F49VALERIE RENNINGERLYNCHBURG VA 18800:18:3617600:04:1416001:08:4315400:02:0915900:33:48 02:07:28 
181362 F53LYNN MATTUCCIARLINGTON VA 18000:17:5915800:04:0114201:06:4519800:04:0216800:34:44 02:07:28 
182143 F32DIANNA DOUGLASWASHINGTON DC 15900:16:1812100:03:2617801:11:2814800:02:0116500:34:18 02:07:29 
183241 F36KERENSA HADLEYFAIRFAX VA 16100:16:1915000:03:5218101:11:5811500:01:4016100:33:55 02:07:42 
184434 F25ASHLEY PARKERSILVER SPRING MD 14100:15:5011100:03:1718501:13:097100:01:1917000:34:54 02:08:26 
185463 F45LORI PRENCIPEALEXANDRIA VA 17700:17:548000:02:4717601:11:0110800:01:3717600:35:51 02:09:07 
PlaceBibCoSAgeNAMECITY/STATE DQDQRankSWIMRankT1RankBIKERankT2RankRUNPENALTYTIMEDQ
186411NFF43FRANCES NORWOODWASHINGTON DC 20400:21:0517800:04:1517101:10:299700:01:3314500:32:10 02:09:30 
187280 F29STEFANIE ISLEYWASHINGTON DC 20200:20:2519900:04:5017001:10:2412700:01:4714700:32:26 02:09:49 
188252 F33ELAINE HARMANARLINGTON VA 16500:16:3611800:03:2515401:08:2715900:02:1318800:39:52 02:10:32 
189618 F34MICHELLE WHITEWASHINGTON DC 18100:17:5917000:04:1119001:14:3218600:02:4815600:33:36 02:13:05 
190324NFF24NISHA KRISHNANWASHINGTON DC 19600:19:0311500:03:2120601:21:57     02:13:47 
191520 F38JENNIFER SCHUTTRESTON VA 17900:17:5716100:04:0420401:21:4311900:01:4313000:30:49 02:16:14 
192135NFF35SARA DEWITZWASHINGTON DC 18400:18:2218800:04:2919401:15:38     02:16:22 
193402NFF22SHERYL NATHANSONCOLLEGE PARK MD 19700:19:1117200:04:1220201:20:139500:01:3315400:33:24 02:18:31 
194471AF33CAMILLE RABONCULLEN VA 20000:20:0513700:03:3920301:21:1211800:01:4215000:32:45 02:19:20 
195222NFF25MILDRED GRATZLARLINGTON VA 21200:23:2116800:04:1018701:13:508000:01:2517900:37:14 02:19:58 
196607 F27ERIN WAUGHWILLIAMSBURG VA 17600:17:3720900:05:4220101:19:5817200:02:2216700:34:32 02:20:09 
197251AF38JOY HARGRAVESALEXANDRIA VA 9200:14:1321300:06:3519601:16:0519500:03:2419000:40:07 02:20:21 
19873 F29JACQUELYN CARPENTERFALLS CHURCH VA 15100:16:0913500:03:3721201:28:014300:01:1013800:31:34 02:20:29 
199443NFF42SUSAN PERKINSROUND HILL VA 19000:18:4720100:04:5119301:15:2318200:02:4218700:39:52 02:21:32 
200341NFF26RACHEL LEVYWOODBRIDGE VA 19500:18:5614900:03:5119701:17:1911600:01:4218600:39:49 02:21:34 
201397NFF31JENNIE MUNOZWASHINGTON DC DC 21500:25:3021200:06:2418401:13:089000:01:3217300:35:25 02:21:57 
20242 F30HOLLY BIGLOWWASHINGTON DC 13900:15:4921000:05:4920701:22:4118000:02:3817400:35:26 02:22:21 
203633 F31EMILY WYANTANNANDALE VA 16800:16:5119100:04:3119901:18:2616800:02:2119200:40:33 02:22:40 
204610 F36SANDY WEBBBEAVERTON OR 19400:18:5420800:05:3018601:13:5018800:02:5419100:40:1700:02:0002:23:22 
205180AF38MELISSA FLEMINGWAYNESBORO VA 20700:21:5720000:04:5019101:14:565300:01:1419300:42:41 02:25:35 
206152 F33CHRISTINA EASTERSPRINGFIELD VA 20900:22:0518900:04:3018801:14:0516500:02:1919500:46:16 02:29:14 
207278NFF35FRANCINE IAZZETTASTAFFORD VA 21600:25:4415100:03:5321101:27:452700:01:0313700:31:26 02:29:49 
208495 F44KARA ROGICHSILVER SPRING MD 20500:21:1513300:03:3321001:27:363400:01:0617700:36:26 02:29:54 
209186AF36TRACEY FORDALEXANDRIA VA 17100:17:0419800:04:4919801:17:2514600:02:0019800:49:01 02:30:17 
210360 F35CECILIA MARTINEZALEXANDRIA VA 20800:22:0019200:04:3119201:15:1515300:02:0919600:46:29 02:30:22 
211130 F38PRISCILLA DEMEOALEXANDRIA VA 20100:20:2217400:04:1420901:23:4719100:02:5718500:39:42 02:30:59 
212239 F45MARY CLARE GUMBLETONWASHINGTON DC 20300:20:4520700:05:2820501:21:5319200:03:0618900:39:57 02:31:07 
213674 F31KRISTIN JACKMANALEXANDRIA VA 21100:23:1021400:07:2920001:19:2419600:03:2618400:39:38 02:33:06 
214438NFF36BHAVNA PATELWASHINGTON DC DC 20600:21:1719700:04:4821501:31:202500:01:0217500:35:33 02:33:57 
215392 F41ANGIE MONTGOMERY HASSONGERMANTOWN MD 21800:28:1021100:06:0020801:23:0618400:02:4418100:38:17 02:38:15 
216253AF30ALAINA HARRISBETHESDA MD 19900:19:4418400:04:2621301:29:3318300:02:4319700:48:38 02:45:01 
PlaceBibCoSAgeNAMECITY/STATE DQDQRankSWIMRankT1RankBIKERankT2RankRUNPENALTYTIMEDQ
217418NFF38AMY ODHNERRESTON VA 21400:24:4021500:08:0121401:29:5717400:02:2419400:43:27 02:48:28 
21812AF44JODI HOPE ANDERSONROCKVILLE MD 5400:12:5420500:04:5914701:07:15       
219605 F37JENA WATSONWASHINGTON DC 21700:26:0512500:03:28         
220559 F32ERICA STEELECLARKSBURG MD 10900:14:38           

** Results are for the private use of participants and are the Intellectual Property of Set Up Events. Unauthorized use of these results is prohibited.